createdAt,value
2022-10-10T00:01:35.951Z,99575.69
2022-10-10T00:06:38.281Z,99590.50
2022-10-10T00:11:40.471Z,99606.19
2022-10-10T00:16:42.912Z,99599.19
2022-10-10T00:21:45.183Z,99618.38
2022-10-10T00:26:47.482Z,99519.78
2022-10-10T00:31:49.678Z,99609.63
2022-10-10T00:36:51.987Z,99621.78
2022-10-10T00:41:54.277Z,99618.25
2022-10-10T00:46:56.483Z,99638.34
2022-10-10T00:51:59.712Z,99659.25
2022-10-10T00:57:08.726Z,99670.59
2022-10-10T01:02:11.012Z,99646.09
2022-10-10T01:07:19.772Z,99686.22
2022-10-10T01:12:51.396Z,99677.56
2022-10-10T01:18:05.970Z,99694.91
2022-10-10T01:23:38.968Z,99693.22
2022-10-10T01:28:53.011Z,99701.00
2022-10-10T01:34:11.306Z,99706.16
2022-10-10T01:39:22.773Z,99718.34
2022-10-10T01:44:24.985Z,99685.91
2022-10-10T01:49:31.239Z,99693.78
2022-10-10T01:54:42.514Z,99719.00
2022-10-10T01:59:58.605Z,99754.84
2022-10-10T02:05:12.981Z,99722.53
2022-10-10T02:10:18.256Z,99694.44
2022-10-10T02:15:23.513Z,99765.25
2022-10-10T02:20:27.459Z,99717.13
2022-10-10T02:25:33.211Z,99744.16
2022-10-10T02:30:37.131Z,99755.44
2022-10-10T02:35:42.168Z,99786.84
2022-10-10T02:40:45.603Z,99744.84
2022-10-10T02:45:47.995Z,99605.63
2022-10-10T02:50:50.247Z,99745.78
2022-10-10T02:55:52.512Z,99716.03
2022-10-10T03:00:54.828Z,99700.28
2022-10-10T03:05:57.131Z,99793.78
2022-10-10T03:11:01.547Z,99735.09
2022-10-10T03:16:04.665Z,99797.16
2022-10-10T03:21:07.234Z,99800.56
2022-10-10T03:26:09.640Z,99811.72
2022-10-10T03:31:11.882Z,99788.97
2022-10-10T03:36:14.205Z,99822.97
2022-10-10T03:41:16.410Z,99826.47
2022-10-10T03:46:18.701Z,99821.94
2022-10-10T03:51:21.079Z,99764.88
2022-10-10T03:56:23.463Z,99875.19
2022-10-10T04:01:25.931Z,99861.13
2022-10-10T04:06:28.732Z,99880.28
2022-10-10T04:11:30.952Z,99859.09
2022-10-10T04:16:33.335Z,99908.06
2022-10-10T04:21:35.762Z,99908.84
2022-10-10T04:26:38.097Z,99870.94
2022-10-10T04:31:40.365Z,99850.72
2022-10-10T04:36:42.804Z,99886.63
2022-10-10T04:41:50.133Z,99920.78
2022-10-10T04:46:52.458Z,99857.59
2022-10-10T04:51:54.837Z,99921.44
2022-10-10T04:56:57.098Z,99965.09
2022-10-10T05:02:01.741Z,99928.16
2022-10-10T05:07:04.428Z,99970.94
2022-10-10T05:12:09.057Z,99960.25
2022-10-10T05:17:11.346Z,99923.44
2022-10-10T05:22:13.582Z,99956.94
2022-10-10T05:27:16.006Z,99968.28
2022-10-10T05:32:18.265Z,99928.69
2022-10-10T05:37:20.500Z,99936.75
2022-10-10T05:42:22.906Z,100003.44
2022-10-10T05:47:28.016Z,99980.53
2022-10-10T05:52:31.465Z,99968.06
2022-10-10T05:57:33.654Z,100019.78
2022-10-10T06:02:36.190Z,100016.31
2022-10-10T06:08:02.399Z,100022.47
2022-10-10T06:13:00.721Z,99984.78
2022-10-10T06:18:03.489Z,99990.00
2022-10-10T06:23:06.808Z,100052.31
2022-10-10T06:28:09.718Z,100045.22
2022-10-10T06:33:12.885Z,99974.06
2022-10-10T06:38:16.244Z,100049.53
2022-10-10T06:43:18.735Z,100008.44
2022-10-10T06:48:20.974Z,100037.47
2022-10-10T06:53:23.419Z,100073.66
2022-10-10T06:58:27.274Z,100014.09
2022-10-10T07:03:30.277Z,100055.47
2022-10-10T07:08:32.571Z,100072.44
2022-10-10T07:13:35.832Z,100052.50
2022-10-10T07:18:38.143Z,100072.06
2022-10-10T07:23:40.445Z,100037.25
2022-10-10T07:28:42.760Z,100061.06
2022-10-10T07:33:50.141Z,100044.59
2022-10-10T07:38:54.967Z,100067.50
2022-10-10T07:43:57.342Z,100037.75
2022-10-10T07:48:59.971Z,100047.56
2022-10-10T07:54:02.563Z,100071.41
2022-10-10T07:59:04.836Z,100051.31
2022-10-10T08:04:07.029Z,100021.66
2022-10-10T08:09:09.273Z,100048.00
2022-10-10T08:14:11.597Z,100061.22
2022-10-10T08:24:36.008Z,100082.31
2022-10-10T08:29:38.165Z,100056.09
2022-10-10T08:34:40.418Z,100045.66
2022-10-10T08:39:42.603Z,100037.78
2022-10-10T08:44:49.562Z,100062.31
2022-10-10T08:50:27.803Z,100070.22
2022-10-10T08:55:34.908Z,100092.09
2022-10-10T09:00:43.623Z,100051.81
2022-10-10T09:06:21.400Z,100098.25
2022-10-10T09:11:54.200Z,100101.75
2022-10-10T09:17:27.117Z,100080.69
2022-10-10T09:22:34.438Z,100008.06
2022-10-10T09:27:42.137Z,100082.44
2022-10-10T09:32:51.975Z,100077.16
2022-10-10T09:38:00.927Z,100099.94
2022-10-10T09:43:12.975Z,100081.59
2022-10-10T09:48:15.408Z,100093.78
2022-10-10T09:53:17.820Z,100097.28
2022-10-10T09:58:30.055Z,100115.66
2022-10-10T10:03:35.037Z,100023.69
2022-10-10T10:08:37.730Z,100078.03
2022-10-10T10:13:39.983Z,100092.03
2022-10-10T10:18:47.705Z,99962.53
2022-10-10T10:23:58.909Z,100096.47
2022-10-10T10:29:03.934Z,100032.53
2022-10-10T10:34:21.405Z,100118.34
2022-10-10T10:39:59.844Z,100117.50
2022-10-10T10:45:19.334Z,100123.59
2022-10-10T10:50:33.447Z,100095.56
2022-10-10T10:55:54.656Z,100118.34
2022-10-10T11:01:23.703Z,100071.03
2022-10-10T11:07:20.604Z,100122.72
2022-10-10T11:12:45.350Z,100121.84
2022-10-10T11:17:58.262Z,100079.81
2022-10-10T11:23:32.097Z,100079.81
2022-10-10T11:29:03.847Z,100121.84
2022-10-10T11:34:14.959Z,100051.81
2022-10-10T11:39:21.489Z,100022.00
2022-10-10T11:44:31.396Z,100085.94
2022-10-10T11:49:52.970Z,100099.94
2022-10-10T11:55:25.110Z,100091.19
2022-10-10T12:00:29.480Z,100028.09
2022-10-10T12:05:38.763Z,100106.03
2022-10-10T12:10:45.889Z,100112.16
2022-10-10T12:15:53.286Z,100092.88
2022-10-10T12:21:14.189Z,100129.66
2022-10-10T12:26:19.799Z,100064.84
2022-10-10T12:31:32.003Z,100071.81
2022-10-10T12:36:40.325Z,100134.00
2022-10-10T12:41:47.118Z,100141.88
2022-10-10T12:47:14.789Z,100137.50
2022-10-10T12:52:36.150Z,100124.34
2022-10-10T12:57:42.301Z,100118.19
2022-10-10T13:02:55.730Z,100120.78
2022-10-10T13:08:02.189Z,100132.16
2022-10-10T13:13:17.721Z,100136.53
2022-10-10T13:18:37.861Z,100121.66
2022-10-10T13:29:27.913Z,100116.28
2022-10-10T13:34:33.049Z,100108.28
2022-10-10T13:39:38.061Z,100145.94
2022-10-10T13:44:52.029Z,100145.94
2022-10-10T13:49:56.063Z,100051.16
2022-10-10T13:55:15.334Z,100132.66
2022-10-10T14:00:22.747Z,100161.44
2022-10-10T14:05:32.352Z,100160.53
2022-10-10T14:10:37.327Z,100163.22
2022-10-10T14:15:42.555Z,100158.56
2022-10-10T14:20:45.930Z,100057.53
2022-10-10T14:25:49.469Z,100179.34
2022-10-10T14:30:51.809Z,100089.72
2022-10-10T14:35:56.786Z,100145.78
2022-10-10T14:41:00.212Z,100171.97
2022-10-10T14:46:04.086Z,100128.00
2022-10-10T14:51:33.219Z,100117.28
2022-10-10T14:57:07.195Z,100118.03
2022-10-10T15:01:54.250Z,100130.97
2022-10-10T15:07:12.319Z,100063.31
2022-10-10T15:12:15.765Z,100150.00
2022-10-10T15:17:17.979Z,100177.84
2022-10-10T15:22:20.302Z,100030.09
2022-10-10T15:27:22.634Z,100102.78
2022-10-10T15:32:25.404Z,100159.66
2022-10-10T15:37:27.922Z,100150.72
2022-10-10T15:42:30.651Z,100123.28
2022-10-10T15:47:32.981Z,100127.50
2022-10-10T15:52:35.897Z,100136.03
2022-10-10T15:57:40.949Z,100186.91
2022-10-10T16:02:43.191Z,100138.31
2022-10-10T16:07:48.349Z,100186.47
2022-10-10T16:12:50.869Z,100086.16
2022-10-10T16:17:53.098Z,100172.09
2022-10-10T16:22:55.762Z,100195.72
2022-10-10T16:27:58.010Z,100166.47
2022-10-10T16:33:00.441Z,100173.25
2022-10-10T16:38:02.687Z,100144.91
2022-10-10T16:43:05.236Z,100178.25
2022-10-10T16:48:07.474Z,100109.63
2022-10-10T16:53:11.478Z,100211.38
2022-10-10T16:58:13.808Z,100217.31
2022-10-10T17:03:18.423Z,100172.28
2022-10-10T17:08:20.646Z,100216.97
2022-10-10T17:13:22.901Z,100158.66
2022-10-10T17:18:25.080Z,100169.97
2022-10-10T17:23:27.418Z,100207.41
2022-10-10T17:28:29.675Z,100193.94
2022-10-10T17:33:32.023Z,100197.06
2022-10-10T17:38:40.045Z,100217.25
2022-10-10T17:43:43.572Z,100220.47
2022-10-10T17:48:48.598Z,100216.00
2022-10-10T17:53:51.640Z,100180.47
2022-10-10T17:58:54.170Z,100189.09
2022-10-10T18:04:02.304Z,100170.53
2022-10-10T18:09:06.092Z,100219.81
2022-10-10T18:14:08.625Z,100204.69
2022-10-10T18:19:11.667Z,100200.94
2022-10-10T18:24:13.942Z,100214.88
2022-10-10T18:29:16.265Z,100172.41
2022-10-10T18:34:18.547Z,100064.34
2022-10-10T18:39:20.843Z,100191.44
2022-10-10T18:44:23.166Z,100183.38
2022-10-10T18:49:27.819Z,100202.59
2022-10-10T18:54:35.486Z,100197.22
2022-10-10T18:59:37.833Z,100157.31
2022-10-10T19:04:40.245Z,100198.50
2022-10-10T19:09:45.365Z,100176.22
2022-10-10T19:14:52.745Z,100180.47
2022-10-10T19:19:55.079Z,100159.94
2022-10-10T19:24:57.355Z,100205.00
2022-10-10T19:30:00.021Z,100173.88
2022-10-10T19:35:02.510Z,100192.38
2022-10-10T19:40:06.032Z,100165.66
2022-10-10T19:45:08.832Z,100157.41
2022-10-10T19:50:11.071Z,100131.09
2022-10-10T19:55:15.001Z,100148.50
2022-10-10T20:00:17.467Z,100181.16
2022-10-10T20:05:28.966Z,100168.72
2022-10-10T20:10:34.407Z,100153.53
2022-10-10T20:15:43.508Z,100159.41
2022-10-10T20:20:49.763Z,100123.97
2022-10-10T20:25:52.756Z,100163.41
2022-10-10T20:30:58.213Z,100167.59
2022-10-10T20:36:03.691Z,100142.88
2022-10-10T20:41:07.338Z,100196.63
2022-10-10T20:46:11.801Z,100137.31
2022-10-10T20:51:14.341Z,100149.59
2022-10-10T20:56:16.735Z,100089.81
2022-10-10T21:01:21.409Z,100140.31
2022-10-10T21:06:26.723Z,100078.81
2022-10-10T21:11:32.358Z,100187.09
2022-10-10T21:16:39.807Z,100177.13
2022-10-10T21:21:42.577Z,100158.38
2022-10-10T21:26:45.714Z,100165.06
2022-10-10T21:31:47.921Z,100155.44
2022-10-10T21:36:50.135Z,100098.78
2022-10-10T21:41:52.315Z,100070.69
2022-10-10T21:46:54.576Z,100148.84
2022-10-10T21:51:56.749Z,100058.00
2022-10-10T21:56:58.976Z,100122.88
2022-10-10T22:02:01.207Z,100081.19
2022-10-10T22:07:04.915Z,100157.16
2022-10-10T22:12:08.073Z,100135.75
2022-10-10T22:17:10.446Z,100161.09
2022-10-10T22:22:12.879Z,100087.50
2022-10-10T22:27:15.064Z,100140.25
2022-10-10T22:32:17.299Z,100017.22
2022-10-10T22:37:19.484Z,100083.00
2022-10-10T22:42:21.740Z,100134.13
2022-10-10T22:47:23.938Z,100140.38
2022-10-10T22:52:26.317Z,100076.84
2022-10-10T22:57:28.516Z,100093.22
2022-10-10T23:02:30.893Z,100113.56
2022-10-10T23:07:33.077Z,100085.75
2022-10-10T23:12:35.348Z,100034.69
2022-10-10T23:17:37.552Z,100101.53
2022-10-10T23:22:39.776Z,100094.28
2022-10-10T23:27:42.045Z,100117.31
2022-10-10T23:32:44.206Z,100145.50
2022-10-10T23:37:46.492Z,100109.34
2022-10-10T23:42:48.633Z,100135.00
2022-10-10T23:47:50.969Z,100108.25
2022-10-10T23:52:53.115Z,100092.34
2022-10-10T23:57:55.344Z,100059.53
